Time;durP1;ratioP1;P1;durP2;ratioP2;P2;SDS_P1;SDS_P2;PMS_P1;PMS_P2;Temp;Humidity;BMP_temperature;BMP_pressure;BME280_temperature;BME280_humidity;BME280_pressure;Samples;Min_cycle;Max_cycle;Signal;HPM_P1;HPM_P2
2022/12/07 00:04:00;;;;;;;11.48;3.50;;;;;;;1.90;80.78;100984.25;5066871;27;20397;-56
2022/12/07 00:06:27;;;;;;;15.68;4.05;;;;;;;1.87;81.29;100988.34;5020833;28;20046;-52
2022/12/07 00:08:54;;;;;;;10.73;3.67;;;;;;;1.85;79.74;100979.72;5021964;28;20065;-56
2022/12/07 00:11:22;;;;;;;11.55;4.03;;;;;;;1.85;79.98;100984.84;5022939;28;20073;-52
2022/12/07 00:13:54;;;;;;;9.43;3.15;;;;;;;1.81;79.53;100978.72;5019128;28;20053;-55
2022/12/07 00:16:22;;;;;;;6.85;3.08;;;;;;;1.80;79.91;100967.59;5017798;28;20077;-54
2022/12/07 00:18:48;;;;;;;9.40;2.55;;;;;;;1.78;81.02;100964.13;5019455;28;20080;-52
2022/12/07 00:21:19;;;;;;;10.93;4.22;;;;;;;1.80;80.35;100970.16;5018678;28;20109;-55
2022/12/07 00:23:47;;;;;;;9.63;3.63;;;;;;;1.80;81.21;100972.72;5019322;28;20042;-55
2022/12/07 00:26:18;;;;;;;12.50;4.07;;;;;;;1.79;80.02;100973.53;5020201;28;20046;-54
2022/12/07 00:28:47;;;;;;;8.10;3.25;;;;;;;1.78;80.47;100979.44;5020250;28;20057;-55
2022/12/07 00:31:16;;;;;;;11.63;3.55;;;;;;;1.78;80.70;100974.34;5021556;28;20082;-52
2022/12/07 00:33:43;;;;;;;7.63;3.50;;;;;;;1.77;81.61;100967.50;5017560;28;20340;-56
2022/12/07 00:36:12;;;;;;;16.02;2.88;;;;;;;1.76;80.22;100960.59;5023380;28;20054;-53
2022/12/07 00:38:39;;;;;;;11.73;3.85;;;;;;;1.76;81.26;100967.41;5020837;28;20081;-55
2022/12/07 00:41:10;;;;;;;9.55;2.97;;;;;;;1.75;81.57;100966.53;5022049;28;20111;-54
2022/12/07 00:43:37;;;;;;;;;;;;;;;1.70;81.56;100955.22;5018706;28;20088;-57
2022/12/07 00:46:03;;;;;;;5.00;1.63;;;;;;;1.71;81.59;100961.19;5021864;28;20385;-53
2022/12/07 00:48:31;;;;;;;9.15;3.03;;;;;;;1.70;81.24;100955.22;5018271;28;20125;-56
2022/12/07 00:50:58;;;;;;;9.80;2.60;;;;;;;1.70;81.29;100954.34;5020585;28;20081;-54
2022/12/07 00:53:24;;;;;;;8.07;3.03;;;;;;;1.67;81.01;100955.94;5018727;28;20061;-54
2022/12/07 00:55:52;;;;;;;6.03;2.17;;;;;;;1.66;81.97;100955.88;5021933;28;20050;-55
2022/12/07 00:58:19;;;;;;;4.38;1.83;;;;;;;1.67;81.13;100949.97;5021710;28;20580;-51
2022/12/07 01:00:46;;;;;;;10.80;3.22;;;;;;;1.66;81.33;100953.31;5021742;28;20057;-54
2022/12/07 01:03:17;;;;;;;11.30;3.78;;;;;;;1.68;81.16;100951.69;5017386;28;20046;-54
2022/12/07 01:05:53;;;;;;;11.00;3.50;;;;;;;1.69;81.45;100958.56;5022212;28;20057;-54
2022/12/07 01:08:21;;;;;;;8.70;3.53;;;;;;;1.69;81.98;100953.44;5021630;28;20540;-54
2022/12/07 01:10:48;;;;;;;9.20;3.53;;;;;;;1.70;81.00;100945.00;5017088;28;20084;-54
2022/12/07 01:13:15;;;;;;;13.32;3.55;;;;;;;1.70;80.63;100955.22;5020662;28;20049;-55
2022/12/07 01:15:43;;;;;;;9.60;3.47;;;;;;;1.69;81.35;100958.56;5009062;28;20053;-56
2022/12/07 01:18:10;;;;;;;9.70;3.17;;;;;;;1.67;80.88;100955.06;5006199;28;20552;-52
2022/12/07 01:20:37;;;;;;;11.00;3.95;;;;;;;1.67;80.68;100965.28;5006393;28;20964;-51
2022/12/07 01:23:04;;;;;;;10.23;4.43;;;;;;;1.64;80.68;100965.13;5004894;28;20457;-55
2022/12/07 01:25:31;;;;;;;10.18;4.43;;;;;;;1.60;81.35;100963.22;5006960;28;20517;-54
2022/12/07 01:27:57;;;;;;;15.18;4.63;;;;;;;1.56;80.95;100964.78;5006733;28;20103;-55
2022/12/07 01:30:24;;;;;;;8.10;3.72;;;;;;;1.52;80.45;100966.28;5003123;28;20081;-57
2022/12/07 01:32:51;;;;;;;10.40;3.58;;;;;;;1.49;81.12;100958.47;5007377;28;20141;-51
2022/12/07 01:35:18;;;;;;;11.25;3.72;;;;;;;1.45;80.12;100964.22;5007464;28;20045;-54
2022/12/07 01:37:44;;;;;;;12.63;4.13;;;;;;;1.43;81.52;100970.94;5008623;28;20053;-56
2022/12/07 01:40:11;;;;;;;10.02;3.65;;;;;;;1.39;81.12;100964.78;5004111;28;20053;-57
2022/12/07 01:42:38;;;;;;;9.10;3.58;;;;;;;1.36;80.12;100961.22;5005714;28;20140;-53
2022/12/07 01:45:41;;;;;;;10.13;3.25;;;;;;;1.30;80.95;100969.47;5005631;28;20045;-55
2022/12/07 01:48:11;;;;;;;8.43;3.85;;;;;;;1.28;81.17;100959.16;5008273;28;20046;-54
2022/12/07 01:50:39;;;;;;;13.07;4.43;;;;;;;1.28;79.97;100961.72;5006993;28;20143;-52
2022/12/07 01:53:08;;;;;;;10.27;3.33;;;;;;;1.24;81.03;100964.91;5007112;28;20061;-57
2022/12/07 01:55:38;;;;;;;13.63;3.80;;;;;;;1.24;80.60;100964.03;5004615;28;20173;-55
2022/12/07 01:58:05;;;;;;;10.55;4.40;;;;;;;1.21;81.41;100954.53;5005282;28;20045;-56
2022/12/07 02:00:32;;;;;;;12.20;4.60;;;;;;;1.19;80.29;100951.06;5005204;28;20691;-56
2022/12/07 02:03:21;;;;;;;9.27;3.92;;;;;;;1.17;80.41;100952.66;5005452;28;20110;-55
2022/12/07 02:05:49;;;;;;;14.35;3.00;;;;;;;1.17;81.27;100962.84;5005066;28;20133;-57
2022/12/07 02:08:17;;;;;;;11.25;4.13;;;;;;;1.16;81.40;100958.56;5007808;28;20073;-54
2022/12/07 02:10:44;;;;;;;8.05;3.15;;;;;;;1.14;79.71;100957.59;5009497;28;20057;-56
2022/12/07 02:13:17;;;;;;;9.05;3.40;;;;;;;1.11;80.11;100962.53;5006832;28;20041;-57
2022/12/07 02:16:00;;;;;;;12.10;3.92;;;;;;;1.08;80.79;100957.28;5005516;28;20081;-54
2022/12/07 02:24:27;;;;;;;10.32;4.18;;;;;;;0.96;80.75;100955.88;5059950;28;20398;-54
2022/12/07 02:33:00;;;;;;;12.45;6.95;;;;;;;0.84;80.70;100957.81;5060145;28;20405;-55
2022/12/07 02:41:13;;;;;;;11.98;5.35;;;;;;;0.77;80.76;100946.38;5029089;27;20417;-54
2022/12/07 02:43:59;;;;;;;10.05;4.18;;;;;;;0.75;80.53;100937.78;5019942;28;20095;-56
2022/12/07 02:46:31;;;;;;;10.13;5.40;;;;;;;0.75;80.44;100941.19;5018362;28;20084;-58
2022/12/07 02:48:59;;;;;;;9.52;4.97;;;;;;;0.74;80.52;100943.66;5018392;28;20096;-57
2022/12/07 02:51:30;;;;;;;12.80;5.28;;;;;;;0.74;80.84;100936.91;5019406;28;20045;-56
2022/12/07 02:53:57;;;;;;;8.88;5.20;;;;;;;0.71;79.85;100934.19;5017321;28;20111;-56
2022/12/07 03:02:28;;;;;;;17.70;7.60;;;;;;;1.01;79.20;100925.47;5051360;27;20405;-58
2022/12/07 03:05:34;;;;;;;13.90;6.43;;;;;;;0.77;79.72;100924.31;5020126;28;20052;-57
2022/12/07 03:16:30;;;;;;;9.50;3.65;;;;;;;0.68;80.70;100918.75;5036928;28;20432;-56
2022/12/07 03:19:02;;;;;;;9.98;4.20;;;;;;;0.67;79.93;100918.66;5002757;28;20042;-56
2022/12/07 03:21:37;;;;;;;10.13;3.97;;;;;;;0.65;80.27;100910.94;4997229;28;20768;-54
2022/12/07 03:24:10;;;;;;;11.45;3.50;;;;;;;0.65;81.03;100913.47;5013595;28;20069;-56
2022/12/07 03:26:43;;;;;;;12.65;4.20;;;;;;;0.63;80.78;100917.63;5001549;28;20138;-57
2022/12/07 03:29:19;;;;;;;12.48;3.58;;;;;;;0.61;80.23;100914.13;5004175;28;20120;-57
2022/12/07 03:31:55;;;;;;;11.65;4.70;;;;;;;0.60;80.58;100902.16;5000669;28;20074;-56
2022/12/07 03:34:29;;;;;;;7.93;3.17;;;;;;;0.58;80.10;100898.66;4999530;28;20223;-54
2022/12/07 03:39:39;;;;;;;7.10;3.55;;;;;;;0.53;80.10;100898.41;5052942;28;20402;-52
2022/12/07 03:42:09;;;;;;;8.43;3.13;;;;;;;0.53;80.13;100887.38;5018742;28;20681;-52
2022/12/07 03:44:36;;;;;;;10.45;3.53;;;;;;;0.49;80.46;100897.41;5018639;28;20137;-55
2022/12/07 03:52:31;;;;;;;10.77;3.60;;;;;;;0.44;79.69;100901.34;5012062;28;20389;-57
2022/12/07 03:57:35;;;;;;;12.50;4.72;;;;;;;0.42;80.81;100900.41;5048954;27;20417;-55
2022/12/07 04:00:06;;;;;;;9.52;4.75;;;;;;;0.41;80.73;100896.13;5021896;28;20147;-57
2022/12/07 04:02:32;;;;;;;;;;;;;;;0.36;80.23;100898.41;5020319;28;20042;-57
2022/12/07 04:05:01;;;;;;;8.95;4.13;;;;;;;0.36;80.26;100897.53;5020251;28;19928;-58
2022/12/07 04:07:27;;;;;;;12.52;4.47;;;;;;;0.36;80.59;100895.88;5020038;28;20439;-52
2022/12/07 04:09:54;;;;;;;9.88;5.03;;;;;;;0.34;80.89;100894.03;5018814;28;21059;-58
2022/12/07 04:12:22;;;;;;;9.38;2.95;;;;;;;0.33;80.92;100892.28;5015263;28;20076;-57
2022/12/07 04:14:48;;;;;;;6.90;4.65;;;;;;;0.32;80.85;100900.72;5023529;28;20107;-55
2022/12/07 04:17:15;;;;;;;11.30;3.72;;;;;;;0.32;80.15;100903.25;5021827;28;20531;-58
2022/12/07 04:19:42;;;;;;;14.32;5.18;;;;;;;0.31;80.68;100904.97;5019384;28;20124;-56
2022/12/07 04:22:08;;;;;;;11.45;3.60;;;;;;;0.31;80.74;100902.41;5019069;28;20041;-55
2022/12/07 04:24:35;;;;;;;9.68;3.60;;;;;;;0.31;79.92;100893.88;5020605;28;20129;-56
2022/12/07 04:27:02;;;;;;;11.95;3.50;;;;;;;0.33;80.14;100897.38;5017337;28;20048;-53
2022/12/07 04:29:28;;;;;;;9.45;3.33;;;;;;;0.33;79.95;100902.47;5019160;28;20084;-57
2022/12/07 04:31:55;;;;;;;10.68;4.47;;;;;;;0.35;81.05;100899.22;5020624;28;20537;-58
2022/12/07 04:34:22;;;;;;;11.25;6.20;;;;;;;0.36;80.04;100897.53;5018597;28;20046;-54
2022/12/07 04:36:48;;;;;;;14.75;4.00;;;;;;;0.38;80.46;100901.06;5016111;28;20041;-53
2022/12/07 04:41:55;;;;;;;9.88;4.35;;;;;;;0.39;79.93;100892.59;5059443;28;20760;-52
2022/12/07 04:44:24;;;;;;;9.02;4.03;;;;;;;0.40;80.57;100894.34;5022534;28;20070;-54
2022/12/07 04:46:51;;;;;;;12.82;4.40;;;;;;;0.38;80.56;100890.84;5022126;28;20136;-57
2022/12/07 04:49:18;;;;;;;5.95;3.30;;;;;;;0.38;79.97;100890.84;5019495;28;20531;-55
2022/12/07 04:51:46;;;;;;;10.27;3.25;;;;;;;0.37;80.95;100884.88;5020056;28;20580;-52
2022/12/07 04:54:14;;;;;;;10.18;5.20;;;;;;;0.36;80.28;100882.25;5018175;28;20080;-53
2022/12/07 04:56:41;;;;;;;13.13;4.47;;;;;;;0.35;79.97;100885.59;5017574;28;20081;-56
2022/12/07 04:59:10;;;;;;;16.60;4.07;;;;;;;0.31;79.56;100881.13;5016525;28;20073;-55
2022/12/07 05:01:37;;;;;;;10.85;4.25;;;;;;;0.29;80.35;100885.25;5018428;28;20068;-55
2022/12/07 05:04:04;;;;;;;8.82;4.13;;;;;;;0.25;80.46;100877.47;5018895;28;20501;-57
2022/12/07 05:06:30;;;;;;;12.15;4.78;;;;;;;0.22;80.35;100884.06;5021487;28;20080;-55
2022/12/07 05:08:57;;;;;;;12.48;4.40;;;;;;;0.20;80.52;100878.03;5016474;28;20828;-57
2022/12/07 05:11:40;;;;;;;8.90;4.28;;;;;;;0.19;80.14;100879.69;5017930;28;20065;-58
2022/12/07 05:14:14;;;;;;;12.00;4.10;;;;;;;0.17;79.99;100881.25;5020522;28;20454;-55
2022/12/07 05:16:42;;;;;;;10.05;3.55;;;;;;;0.17;80.38;100882.94;5017553;28;20053;-58
2022/12/07 05:19:09;;;;;;;9.85;4.25;;;;;;;0.14;80.20;100882.78;5020086;28;20133;-55
2022/12/07 05:21:36;;;;;;;10.93;5.00;;;;;;;0.11;80.46;100884.34;5018338;28;20513;-55
2022/12/07 05:24:03;;;;;;;14.90;4.93;;;;;;;0.11;80.37;100875.84;5017350;28;20104;-53
2022/12/07 05:26:30;;;;;;;15.02;4.10;;;;;;;0.09;80.42;100877.44;5016531;28;20088;-56
2022/12/07 05:28:57;;;;;;;9.50;3.72;;;;;;;0.08;79.78;100878.25;5018113;28;20148;-52
2022/12/07 05:31:25;;;;;;;10.27;3.60;;;;;;;0.06;80.50;100867.06;5018545;28;20045;-53
2022/12/07 05:33:53;;;;;;;11.38;5.03;;;;;;;0.05;79.95;100870.44;5018423;28;20045;-57
2022/12/07 05:36:19;;;;;;;9.20;3.70;;;;;;;0.04;80.15;100868.69;5016813;28;20108;-55
2022/12/07 05:38:46;;;;;;;11.90;4.85;;;;;;;0.03;80.07;100869.47;5019320;28;20081;-56
2022/12/07 05:44:04;;;;;;;12.00;4.47;;;;;;;0.01;80.71;100876.16;5016207;28;20675;-55
2022/12/07 05:46:31;;;;;;;11.20;4.18;;;;;;;-0.02;80.07;100874.31;5009173;28;20147;-55
2022/12/07 05:48:57;;;;;;;9.43;3.83;;;;;;;-0.01;80.46;100871.84;5017419;28;20128;-54
2022/12/07 05:51:24;;;;;;;8.93;3.92;;;;;;;-0.04;80.33;100871.69;5017626;28;20121;-55
2022/12/07 05:53:51;;;;;;;15.65;4.38;;;;;;;-0.05;79.88;100880.13;5005730;28;20058;-57
2022/12/07 05:56:17;;;;;;;12.93;4.50;;;;;;;-0.07;79.97;100875.75;4999285;28;20049;-56
2022/12/07 06:01:30;;;;;;;11.38;3.95;;;;;;;-0.13;79.79;100871.22;5001603;28;20166;-55
2022/12/07 06:03:57;;;;;;;8.98;4.25;;;;;;;-0.15;80.46;100867.69;5004344;28;20096;-52
2022/12/07 06:06:24;;;;;;;10.52;4.97;;;;;;;-0.18;80.15;100857.31;5002690;28;20624;-58
2022/12/07 06:08:50;;;;;;;20.55;4.75;;;;;;;-0.21;79.74;100852.94;5003171;28;20064;-58
2022/12/07 06:14:04;;;;;;;10.23;4.47;;;;;;;-0.22;80.02;100855.41;4997525;28;20463;-55
2022/12/07 06:16:30;;;;;;;10.65;4.88;;;;;;;-0.24;80.08;100857.88;5003987;28;20116;-55
2022/12/07 06:18:57;;;;;;;12.60;5.20;;;;;;;-0.24;80.47;100859.56;5001377;28;20143;-54
2022/12/07 06:21:25;;;;;;;14.55;6.40;;;;;;;-0.27;80.17;100857.72;4996408;28;20108;-55
2022/12/07 06:23:52;;;;;;;20.17;8.63;;;;;;;-0.28;80.12;100861.94;5004906;28;20073;-57
2022/12/07 06:26:19;;;;;;;29.05;10.77;;;;;;;-0.30;80.13;100852.47;5002972;28;20445;-53
2022/12/07 06:28:46;;;;;;;21.20;8.45;;;;;;;-0.31;81.00;100860.88;5005694;28;20083;-52
2022/12/07 06:31:13;;;;;;;26.50;10.65;;;;;;;-0.34;79.86;100848.00;5004238;28;20050;-58
2022/12/07 06:33:40;;;;;;;31.13;12.80;;;;;;;-0.35;80.03;100854.75;5000700;28;20485;-54
2022/12/07 06:36:07;;;;;;;19.52;8.57;;;;;;;-0.38;80.34;100841.84;5004718;28;20490;-56
2022/12/07 06:38:34;;;;;;;14.52;6.32;;;;;;;-0.40;80.22;100846.84;5006455;28;20111;-53
2022/12/07 06:41:01;;;;;;;13.27;5.55;;;;;;;-0.40;79.99;100840.91;5004166;28;20534;-59
2022/12/07 06:43:28;;;;;;;13.13;5.78;;;;;;;-0.42;80.11;100842.47;5002678;28;20045;-55
2022/12/07 06:45:55;;;;;;;15.52;5.18;;;;;;;-0.44;80.35;100844.06;5004110;28;20065;-56
2022/12/07 06:48:21;;;;;;;15.27;5.95;;;;;;;-0.47;80.20;100839.66;5000503;28;20054;-54
2022/12/07 06:50:48;;;;;;;10.55;4.75;;;;;;;-0.48;79.73;100844.69;5001396;28;20140;-55
2022/12/07 06:53:20;;;;;;;19.40;5.60;;;;;;;-0.48;80.46;100844.69;5004242;28;20489;-53
2022/12/07 06:55:47;;;;;;;16.35;6.32;;;;;;;-0.49;80.22;100840.38;5003590;28;20061;-55
2022/12/07 06:58:13;;;;;;;10.10;3.70;;;;;;;-0.52;80.28;100836.88;5004044;28;20445;-56
2022/12/07 07:00:40;;;;;;;10.15;4.55;;;;;;;-0.50;79.94;100833.53;4999712;28;20129;-57
2022/12/07 07:03:07;;;;;;;8.50;3.72;;;;;;;-0.53;80.04;100845.28;4997563;28;20116;-54
2022/12/07 07:05:33;;;;;;;9.05;3.42;;;;;;;-0.52;80.11;100852.16;5003144;28;20046;-55
2022/12/07 07:08:01;;;;;;;8.13;3.78;;;;;;;-0.53;80.42;100845.28;5005392;28;20073;-56
2022/12/07 07:10:48;;;;;;;6.38;3.42;;;;;;;-0.53;80.17;100855.47;5003459;28;20044;-53
2022/12/07 07:13:14;;;;;;;9.30;3.75;;;;;;;-0.54;80.15;100853.72;5006893;28;20052;-58
2022/12/07 07:15:41;;;;;;;8.57;3.92;;;;;;;-0.55;79.84;100846.91;5004632;28;20072;-54
2022/12/07 07:18:08;;;;;;;5.72;2.88;;;;;;;-0.55;80.31;100853.63;5003286;28;20100;-53
2022/12/07 07:20:35;;;;;;;10.25;4.30;;;;;;;-0.56;79.88;100850.25;5004307;28;20033;-55
2022/12/07 07:23:02;;;;;;;7.40;3.10;;;;;;;-0.57;80.11;100848.47;5006500;28;20622;-55
2022/12/07 07:25:29;;;;;;;12.43;4.18;;;;;;;-0.55;80.07;100861.28;4995069;28;20049;-54
2022/12/07 07:27:55;;;;;;;15.45;4.40;;;;;;;-0.56;80.09;100850.25;5003374;28;20058;-55
2022/12/07 07:30:22;;;;;;;8.13;2.92;;;;;;;-0.56;80.20;100859.53;5004648;28;20042;-52
2022/12/07 07:32:48;;;;;;;13.05;4.28;;;;;;;-0.56;80.68;100850.25;5004402;28;20050;-54
2022/12/07 07:35:16;;;;;;;12.10;3.95;;;;;;;-0.55;80.42;100851.09;5001832;28;20077;-55
2022/12/07 07:37:42;;;;;;;13.05;4.72;;;;;;;-0.56;80.36;100860.41;5003943;28;20132;-55
2022/12/07 07:40:09;;;;;;;12.23;4.07;;;;;;;-0.54;80.32;100847.78;5003028;28;20096;-53
2022/12/07 07:42:36;;;;;;;17.00;4.28;;;;;;;-0.55;80.31;100844.34;5005492;28;20053;-55
2022/12/07 07:45:04;;;;;;;10.40;4.38;;;;;;;-0.55;80.27;100846.00;5002927;28;20470;-55
2022/12/07 07:47:31;;;;;;;10.93;3.95;;;;;;;-0.56;80.33;100845.16;4998328;28;20045;-58
2022/12/07 07:49:57;;;;;;;13.15;4.80;;;;;;;-0.56;80.42;100840.06;4994969;28;20608;-57
2022/12/07 07:52:24;;;;;;;10.98;3.17;;;;;;;-0.56;80.18;100840.06;4994549;28;20054;-57
2022/12/07 07:54:50;;;;;;;11.88;4.75;;;;;;;-0.56;80.15;100839.16;4994835;28;21239;-55
2022/12/07 07:57:17;;;;;;;15.55;4.32;;;;;;;-0.58;80.25;100836.53;4994441;28;20091;-55
2022/12/07 07:59:44;;;;;;;7.38;3.40;;;;;;;-0.60;80.10;100835.59;5000203;28;20049;-55
2022/12/07 08:02:19;;;;;;;12.45;4.63;;;;;;;-0.60;79.89;100838.13;4994100;28;20073;-55
2022/12/07 08:04:46;;;;;;;12.98;4.63;;;;;;;-0.59;80.20;100833.91;4993929;28;20260;-55
2022/12/07 08:07:14;;;;;;;15.77;5.00;;;;;;;-0.57;80.20;100847.59;4993680;28;20056;-55
2022/12/07 08:09:41;;;;;;;14.85;5.97;;;;;;;-0.56;80.00;100844.25;4997946;28;20046;-57
2022/12/07 08:12:08;;;;;;;12.07;5.43;;;;;;;-0.54;80.30;100843.53;4996571;28;20066;-55
2022/12/07 08:14:35;;;;;;;11.35;4.20;;;;;;;-0.45;80.48;100847.38;4996514;28;20414;-56
2022/12/07 08:17:01;;;;;;;9.85;3.70;;;;;;;-0.33;80.91;100845.53;4995014;28;20112;-56
2022/12/07 08:19:28;;;;;;;19.48;5.05;;;;;;;-0.13;80.50;100850.84;4996734;28;20735;-56
2022/12/07 08:21:56;;;;;;;18.85;4.47;;;;;;;0.08;81.05;100845.13;4994906;28;20073;-54
2022/12/07 08:24:23;;;;;;;10.18;4.72;;;;;;;0.33;79.84;100846.41;4996275;28;20052;-57
2022/12/07 08:26:50;;;;;;;10.82;4.28;;;;;;;0.51;80.54;100837.16;4996743;28;20058;-53
2022/12/07 08:29:17;;;;;;;9.27;3.72;;;;;;;0.86;80.49;100851.59;4997074;28;20046;-54
2022/12/07 08:31:44;;;;;;;14.15;5.13;;;;;;;1.36;81.14;100854.00;4998310;28;20073;-57
2022/12/07 08:34:11;;;;;;;10.90;4.18;;;;;;;1.84;80.07;100852.81;4992964;28;20042;-53
2022/12/07 08:36:38;;;;;;;10.27;3.92;;;;;;;2.27;79.55;100848.75;4998833;28;20069;-56
2022/12/07 08:39:04;;;;;;;12.13;4.95;;;;;;;2.57;79.14;100845.81;5001723;28;20510;-56
2022/12/07 08:41:51;;;;;;;14.30;4.32;;;;;;;2.86;78.69;100848.69;5001269;28;20046;-57
2022/12/07 08:44:17;;;;;;;13.80;5.50;;;;;;;3.07;78.47;100846.16;5003144;28;20755;-58
2022/12/07 08:46:53;;;;;;;51.53;14.63;;;;;;;3.38;77.62;100850.75;5005112;28;20567;-53
2022/12/07 08:49:24;;;;;;;13.68;6.32;;;;;;;3.81;77.64;100857.56;5003600;28;20108;-56
2022/12/07 08:51:51;;;;;;;16.50;5.68;;;;;;;4.27;77.38;100854.97;5005489;28;20045;-58
2022/12/07 08:54:19;;;;;;;18.00;5.35;;;;;;;4.70;78.07;100849.59;5005171;28;20074;-56
2022/12/07 08:56:47;;;;;;;16.35;5.90;;;;;;;5.03;77.73;100842.97;5004961;28;20049;-58
2022/12/07 08:59:19;;;;;;;14.45;5.63;;;;;;;5.42;77.80;100846.75;5001600;28;20050;-57
2022/12/07 09:01:45;;;;;;;16.77;5.97;;;;;;;5.89;76.08;100849.91;5004113;28;20108;-58
2022/12/07 09:04:12;;;;;;;11.55;5.35;;;;;;;6.21;76.56;100850.84;5001263;28;20042;-56
2022/12/07 09:06:39;;;;;;;12.88;5.07;;;;;;;6.25;75.72;100845.78;5004964;28;20046;-55
2022/12/07 09:09:06;;;;;;;18.42;6.20;;;;;;;6.41;75.84;100849.69;5004542;28;20058;-56
2022/12/07 09:11:32;;;;;;;16.98;6.10;;;;;;;6.89;76.14;100847.47;5006903;28;20120;-55
2022/12/07 09:13:59;;;;;;;14.27;5.75;;;;;;;7.39;76.23;100843.50;5004485;28;20070;-55
2022/12/07 09:16:26;;;;;;;16.00;6.22;;;;;;;7.86;74.49;100848.84;5003949;28;20083;-56
2022/12/07 09:18:52;;;;;;;16.40;6.55;;;;;;;8.36;75.10;100855.84;4999638;28;20073;-56
2022/12/07 09:21:19;;;;;;;15.95;7.13;;;;;;;8.94;74.40;100854.34;5001819;28;20050;-58
2022/12/07 09:23:45;;;;;;;18.88;7.45;;;;;;;9.59;73.85;100863.09;5002131;28;20081;-56
2022/12/07 09:26:12;;;;;;;17.77;6.72;;;;;;;10.27;72.28;100850.16;5004999;28;20509;-55
2022/12/07 09:28:39;;;;;;;21.40;8.95;;;;;;;10.84;72.44;100850.78;5005494;28;20103;-55
2022/12/07 09:31:06;;;;;;;19.15;7.65;;;;;;;11.42;70.47;100850.34;5007186;28;20062;-58
2022/12/07 09:34:00;;;;;;;19.73;7.95;;;;;;;12.04;69.98;100844.66;5006033;28;20046;-56
2022/12/07 09:36:28;;;;;;;19.95;8.15;;;;;;;12.38;68.11;100845.63;5007085;28;20501;-57
2022/12/07 09:38:55;;;;;;;15.05;5.70;;;;;;;12.52;68.16;100843.06;5006618;28;20046;-57
2022/12/07 09:41:23;;;;;;;14.02;6.90;;;;;;;12.43;67.72;100846.53;5005166;28;20100;-56
2022/12/07 09:43:50;;;;;;;12.18;4.97;;;;;;;12.16;66.44;100848.19;5006704;28;20049;-57
2022/12/07 09:46:20;;;;;;;12.32;4.70;;;;;;;12.28;67.45;100853.41;5008106;28;20506;-57
2022/12/07 09:48:49;;;;;;;12.88;5.22;;;;;;;12.78;66.61;100845.72;5007117;28;20061;-54
2022/12/07 09:51:20;;;;;;;9.98;4.03;;;;;;;13.29;65.31;100844.84;5008396;28;20145;-54
2022/12/07 09:53:52;;;;;;;10.07;4.57;;;;;;;13.90;64.21;100851.66;5002080;28;20537;-56
2022/12/07 09:56:19;;;;;;;12.68;4.72;;;;;;;14.42;63.61;100853.16;4999493;28;20049;-56
2022/12/07 09:58:47;;;;;;;7.53;2.97;;;;;;;14.93;62.59;100856.34;5004099;28;20046;-55
2022/12/07 10:01:18;;;;;;;11.77;4.15;;;;;;;15.35;61.03;100843.78;5006811;28;20038;-58
2022/12/07 10:03:52;;;;;;;17.65;7.10;;;;;;;15.73;59.75;100853.81;5002721;28;20058;-51
2022/12/07 10:06:20;;;;;;;13.65;5.90;;;;;;;16.07;59.44;100848.22;5007890;28;20054;-54
2022/12/07 10:08:47;;;;;;;11.38;5.07;;;;;;;16.41;57.88;100845.16;5007693;28;20122;-60
2022/12/07 10:11:15;;;;;;;19.90;7.25;;;;;;;16.81;56.33;100845.44;5007640;28;20141;-57
2022/12/07 10:13:47;;;;;;;20.42;8.05;;;;;;;17.07;55.43;100838.94;5004622;28;20053;-54
2022/12/07 10:16:41;;;;;;;21.45;7.05;;;;;;;16.73;54.80;100842.06;5001393;28;20058;-57
2022/12/07 10:19:27;;;;;;;18.52;8.02;;;;;;;16.15;53.49;100835.91;5000336;28;20049;-57
2022/12/07 10:22:15;;;;;;;18.20;6.68;;;;;;;15.12;50.81;100834.41;5005148;28;20049;-58
2022/12/07 10:24:43;;;;;;;17.20;5.65;;;;;;;14.25;54.46;100837.59;4991022;28;20115;-54
2022/12/07 10:27:25;;;;;;;9.77;4.45;;;;;;;13.30;54.50;100828.34;5007676;28;20116;-56
2022/12/07 10:29:53;;;;;;;14.30;5.25;;;;;;;12.60;56.34;100830.97;5006019;28;20050;-57
2022/12/07 10:35:31;;;;;;;11.50;5.43;;;;;;;11.70;52.73;100818.53;5048912;28;20409;-57
2022/12/07 10:37:59;;;;;;;12.55;5.13;;;;;;;11.07;55.02;100816.41;5040874;28;20049;-56
2022/12/07 10:40:36;;;;;;;11.70;5.03;;;;;;;10.54;55.82;100822.84;5041482;28;20077;-58
2022/12/07 10:43:17;;;;;;;10.00;4.93;;;;;;;10.06;57.00;100819.72;5042127;28;20067;-58
2022/12/07 11:05:52;;;;;;;8.02;4.55;;;;;;;7.42;60.53;100797.19;5062401;27;20407;-57
2022/12/07 11:08:59;;;;;;;9.48;4.18;;;;;;;7.18;61.15;100792.34;5029822;28;20139;-57
2022/12/07 11:11:36;;;;;;;7.63;4.55;;;;;;;6.91;61.78;100790.84;5042371;28;20049;-53
2022/12/07 11:14:23;;;;;;;9.23;5.30;;;;;;;6.66;61.23;100783.38;5038766;28;20045;-58
2022/12/07 11:19:54;;;;;;;6.38;2.78;;;;;;;6.28;62.41;100778.09;5031017;28;20408;-55
2022/12/07 11:22:36;;;;;;;7.07;2.85;;;;;;;6.11;62.87;100778.53;5009622;28;20046;-55
2022/12/07 11:28:38;;;;;;;8.52;3.60;;;;;;;5.67;63.19;100763.56;5044630;28;20783;-56
2022/12/07 11:42:01;;;;;;;12.15;4.53;;;;;;;6.11;64.87;100752.81;5061127;28;20399;-53
2022/12/07 11:47:16;;;;;;;8.45;4.57;;;;;;;6.36;64.17;100737.16;5025263;28;20414;-56
2022/12/07 11:49:52;;;;;;;6.93;2.38;;;;;;;6.07;63.53;100740.69;5018715;28;20085;-57
2022/12/07 11:52:30;;;;;;;8.10;3.03;;;;;;;5.76;64.04;100745.84;5019822;28;20519;-57
2022/12/07 11:54:58;;;;;;;7.50;3.80;;;;;;;5.56;64.79;100737.56;5022917;28;20927;-53
2022/12/07 11:57:35;;;;;;;8.80;3.63;;;;;;;5.40;65.26;100721.69;5019078;28;20062;-55
2022/12/07 12:00:06;;;;;;;8.82;4.22;;;;;;;5.30;64.29;100717.09;5021039;28;20092;-53
2022/12/07 12:02:57;;;;;;;11.48;3.05;;;;;;;5.18;65.20;100716.75;5021244;28;20115;-54
2022/12/07 12:05:25;;;;;;;8.57;4.70;;;;;;;5.02;65.64;100723.97;5020451;28;20517;-55
2022/12/07 12:08:13;;;;;;;8.75;4.07;;;;;;;4.87;64.82;100720.09;5019672;28;20046;-55
2022/12/07 12:11:19;;;;;;;8.52;3.75;;;;;;;4.69;65.22;100715.25;5017839;28;20077;-54
2022/12/07 12:14:25;;;;;;;14.02;4.45;;;;;;;4.55;65.44;100712.25;5016408;28;20112;-54
2022/12/07 12:22:42;;;;;;;18.88;6.68;;;;;;;4.32;66.25;100708.94;5052225;27;20401;-53
2022/12/07 12:25:30;;;;;;;35.38;11.63;;;;;;;4.24;67.00;100700.97;5039850;28;20469;-56
2022/12/07 12:27:59;;;;;;;20.80;8.25;;;;;;;4.25;66.77;100692.44;5058295;28;20049;-54
2022/12/07 12:33:23;;;;;;;20.10;9.80;;;;;;;4.32;67.45;100680.72;5061929;28;20376;-55
2022/12/07 12:47:37;;;;;;;11.27;5.57;;;;;;;3.95;67.68;100662.41;5092912;27;20417;-53
2022/12/07 12:50:17;;;;;;;8.88;5.30;;;;;;;3.84;68.24;100655.22;5076918;28;20044;-54
2022/12/07 12:55:26;;;;;;;9.93;5.15;;;;;;;3.81;68.51;100643.97;5037047;27;20398;-51
2022/12/07 13:01:38;;;;;;;12.98;6.45;;;;;;;3.71;68.97;100637.66;5101841;27;20406;-56
2022/12/07 13:04:21;;;;;;;9.32;5.15;;;;;;;3.66;68.98;100640.06;5060957;28;20139;-53
2022/12/07 13:06:48;;;;;;;14.57;5.15;;;;;;;3.66;69.34;100626.38;5070459;28;20084;-54
2022/12/07 13:09:22;;;;;;;8.27;5.85;;;;;;;3.64;69.67;100628.03;5071613;28;20040;-54
2022/12/07 13:11:57;;;;;;;14.50;5.38;;;;;;;3.59;69.82;100635.56;5059767;28;20090;-54
2022/12/07 13:14:53;;;;;;;13.27;3.53;;;;;;;3.52;69.78;100631.91;5072859;28;20666;-53
2022/12/07 13:20:40;;;;;;;6.45;3.00;;;;;;;3.51;69.85;100624.16;5024732;27;20424;-54
2022/12/07 13:23:09;;;;;;;7.53;3.00;;;;;;;3.52;70.58;100620.78;5022101;28;20049;-55
2022/12/07 13:25:43;;;;;;;9.27;3.55;;;;;;;3.53;70.37;100623.41;5016917;28;20571;-55
2022/12/07 13:28:17;;;;;;;7.03;3.55;;;;;;;3.52;70.52;100616.53;5020447;28;20051;-53
2022/12/07 13:30:56;;;;;;;11.82;3.00;;;;;;;3.53;70.49;100608.03;5022822;28;20049;-51
2022/12/07 13:33:24;;;;;;;5.50;2.60;;;;;;;3.50;70.65;100607.91;5021281;28;20049;-55
2022/12/07 13:35:54;;;;;;;7.35;2.75;;;;;;;3.51;70.74;100604.53;5019916;28;20069;-53
2022/12/07 13:38:37;;;;;;;4.93;2.65;;;;;;;3.46;70.65;100606.06;5018568;28;20073;-54
2022/12/07 13:41:22;;;;;;;7.93;2.30;;;;;;;3.45;71.14;100596.66;5018944;28;20073;-54
2022/12/07 13:43:53;;;;;;;8.10;3.50;;;;;;;3.48;71.10;100599.31;5021592;28;20108;-56
2022/12/07 13:46:30;;;;;;;6.05;3.00;;;;;;;3.45;70.86;100591.53;5023499;28;20079;-54
2022/12/07 13:48:57;;;;;;;4.60;2.38;;;;;;;3.44;71.60;100587.19;5022586;28;20091;-52
2022/12/07 13:51:27;;;;;;;10.38;2.65;;;;;;;3.44;71.07;100592.31;5023311;28;20049;-54